createdAt,value
2022-08-05T00:02:50.570Z,42.33
2022-08-05T00:06:06.426Z,42.51
2022-08-05T00:09:19.449Z,42.79
2022-08-05T00:12:22.797Z,42.52
2022-08-05T00:15:55.149Z,42.63
2022-08-05T00:18:49.766Z,42.67
2022-08-05T00:21:54.057Z,42.80
2022-08-05T00:24:57.059Z,43.09
2022-08-05T00:27:59.953Z,43.16
2022-08-05T00:31:04.735Z,43.64
2022-08-05T00:34:54.425Z,43.48
2022-08-05T00:37:50.650Z,43.91
2022-08-05T00:40:59.089Z,44.17
2022-08-05T00:44:03.592Z,42.59
2022-08-05T00:47:06.287Z,45.33
2022-08-05T00:50:10.054Z,43.47
2022-08-05T00:54:00.707Z,44.53
2022-08-05T00:56:36.228Z,45.38
2022-08-05T00:59:44.414Z,43.95
2022-08-05T01:02:48.248Z,45.92
2022-08-05T01:05:54.569Z,44.13
2022-08-05T01:08:57.860Z,44.71
2022-08-05T01:12:17.896Z,44.89
2022-08-05T01:15:36.340Z,46.04
2022-08-05T01:18:48.049Z,47.40
2022-08-05T01:22:03.426Z,46.68
2022-08-05T01:25:39.729Z,46.27
2022-08-05T01:28:49.769Z,47.51
2022-08-05T01:31:59.182Z,47.39
2022-08-05T01:35:11.365Z,46.06
2022-08-05T01:38:36.798Z,46.89
2022-08-05T01:41:44.385Z,46.86
2022-08-05T01:44:54.154Z,48.82
2022-08-05T01:48:00.897Z,49.00
2022-08-05T01:51:11.915Z,47.81
2022-08-05T01:54:18.004Z,47.97
2022-08-05T01:58:10.983Z,50.00
2022-08-05T02:00:52.155Z,50.52
2022-08-05T02:03:57.026Z,50.70
2022-08-05T02:07:00.480Z,51.01
2022-08-05T02:10:08.009Z,51.01
2022-08-05T02:13:17.832Z,51.12
2022-08-05T02:16:39.590Z,51.44
2022-08-05T02:19:48.428Z,51.64
2022-08-05T02:23:02.953Z,51.80
2022-08-05T02:26:09.558Z,52.04
2022-08-05T02:29:24.281Z,52.79
2022-08-05T02:32:46.845Z,52.98
2022-08-05T02:35:58.908Z,53.40
2022-08-05T02:39:08.783Z,54.04
2022-08-05T02:42:12.125Z,54.29
2022-08-05T02:45:52.239Z,53.47
2022-08-05T02:48:55.284Z,53.64
2022-08-05T02:52:03.966Z,55.42
2022-08-05T02:55:10.726Z,55.59
2022-08-05T02:58:17.598Z,55.18
2022-08-05T03:01:27.863Z,54.64
2022-08-05T03:04:31.005Z,55.01
2022-08-05T03:08:01.154Z,54.58
2022-08-05T03:11:53.554Z,54.79
2022-08-05T03:14:20.764Z,55.11
2022-08-05T03:17:23.920Z,54.71
2022-08-05T03:20:27.963Z,54.50
2022-08-05T03:23:31.866Z,54.11
2022-08-05T03:26:38.207Z,53.53
2022-08-05T03:29:45.535Z,53.28
2022-08-05T03:33:06.250Z,53.29
2022-08-05T03:36:11.924Z,53.28
2022-08-05T03:39:20.136Z,53.44
2022-08-05T03:42:32.901Z,54.17
2022-08-05T03:45:57.514Z,55.23
2022-08-05T03:49:02.212Z,55.98
2022-08-05T03:52:48.603Z,56.33
2022-08-05T03:56:09.364Z,56.35
2022-08-05T03:59:07.634Z,55.74
2022-08-05T04:02:17.281Z,55.32
2022-08-05T04:05:23.107Z,54.27
2022-08-05T04:08:36.499Z,52.16
2022-08-05T04:11:50.853Z,51.40
2022-08-05T04:14:57.731Z,50.17
2022-08-05T04:18:09.898Z,50.80
2022-08-05T04:22:04.953Z,50.04
2022-08-05T04:24:43.939Z,49.21
2022-08-05T04:27:58.206Z,48.64
2022-08-05T04:31:02.675Z,48.48
2022-08-05T04:34:31.189Z,49.15
2022-08-05T04:38:02.070Z,48.63
2022-08-05T04:40:56.766Z,47.18
2022-08-05T04:44:02.394Z,44.73
2022-08-05T04:47:17.007Z,46.44
2022-08-05T04:50:37.353Z,44.50
2022-08-05T04:53:45.792Z,43.65
2022-08-05T04:56:49.554Z,42.49
2022-08-05T04:59:52.063Z,42.58
2022-08-05T05:02:57.313Z,43.03
2022-08-05T05:06:40.163Z,41.24
2022-08-05T05:09:26.132Z,41.20
2022-08-05T05:12:29.247Z,40.96
2022-08-05T05:15:56.953Z,39.00
2022-08-05T05:19:17.730Z,40.62
2022-08-05T05:22:24.300Z,39.50
2022-08-05T05:25:32.572Z,37.78
2022-08-05T05:28:45.150Z,36.69
2022-08-05T05:31:48.269Z,35.79
2022-08-05T05:34:52.489Z,34.40
2022-08-05T05:38:01.571Z,34.23
2022-08-05T05:41:07.672Z,32.34
2022-08-05T05:44:35.715Z,32.76
2022-08-05T05:48:06.592Z,34.06
2022-08-05T05:50:58.728Z,31.11
2022-08-05T05:54:18.048Z,29.75
2022-08-05T05:57:22.434Z,28.50
2022-08-05T06:00:27.708Z,28.11
2022-08-05T06:04:00.511Z,29.58
2022-08-05T06:07:01.550Z,27.78
2022-08-05T06:10:10.200Z,26.84
2022-08-05T06:13:13.604Z,27.65
2022-08-05T06:16:29.109Z,30.00
2022-08-05T06:19:35.699Z,26.70
2022-08-05T06:22:40.442Z,26.03
2022-08-05T06:26:12.530Z,26.40
2022-08-05T06:29:25.104Z,27.00
2022-08-05T06:32:31.975Z,25.92
2022-08-05T06:36:09.339Z,26.51
2022-08-05T06:38:57.731Z,26.53
2022-08-05T06:42:04.105Z,28.87
2022-08-05T06:45:08.567Z,26.19
2022-08-05T06:48:55.389Z,24.38
2022-08-05T06:51:35.196Z,24.17
2022-08-05T06:54:43.620Z,23.86
2022-08-05T06:58:03.751Z,25.91
2022-08-05T07:01:14.313Z,24.54
2022-08-05T07:04:23.846Z,25.16
2022-08-05T07:07:43.327Z,24.73
2022-08-05T07:10:52.470Z,23.32
2022-08-05T07:14:15.529Z,23.44
2022-08-05T07:18:01.974Z,22.15
2022-08-05T07:20:46.527Z,23.38
2022-08-05T07:23:50.127Z,24.25
2022-08-05T07:26:55.331Z,21.20
2022-08-05T07:30:25.703Z,21.82
2022-08-05T07:33:35.209Z,21.81
2022-08-05T07:36:40.146Z,22.41
2022-08-05T07:40:04.399Z,22.20
2022-08-05T07:43:20.301Z,21.47
2022-08-05T07:46:26.410Z,23.04
2022-08-05T07:49:29.176Z,22.64
2022-08-05T07:52:32.203Z,20.95
2022-08-05T07:55:44.208Z,20.09
2022-08-05T07:58:59.250Z,21.47
2022-08-05T08:02:03.170Z,21.25
2022-08-05T08:05:06.830Z,22.93
2022-08-05T08:08:23.429Z,22.64
2022-08-05T08:11:53.478Z,21.48
2022-08-05T08:14:52.414Z,21.98
2022-08-05T08:17:55.545Z,21.13
2022-08-05T08:21:09.693Z,19.90
2022-08-05T08:24:21.067Z,20.60
2022-08-05T08:27:47.301Z,20.48
2022-08-05T08:30:51.046Z,21.17
2022-08-05T08:33:53.784Z,21.35
2022-08-05T08:37:01.717Z,21.25
2022-08-05T08:40:08.200Z,20.65
2022-08-05T08:45:20.442Z,21.09
2022-08-05T08:46:37.345Z,21.16
2022-08-05T08:50:22.901Z,18.45
2022-08-05T08:53:12.580Z,20.05
2022-08-05T08:56:17.369Z,19.32
2022-08-05T08:59:21.285Z,19.41
2022-08-05T09:02:26.765Z,20.36
2022-08-05T09:05:38.378Z,18.67
2022-08-05T09:08:53.307Z,19.39
2022-08-05T09:11:59.338Z,18.84
2022-08-05T09:15:10.620Z,19.75
2022-08-05T09:18:15.921Z,20.67
2022-08-05T09:22:23.040Z,19.55
2022-08-05T09:24:58.725Z,19.97
2022-08-05T09:28:13.040Z,18.88
2022-08-05T09:31:44.159Z,20.32
2022-08-05T09:34:55.048Z,20.67
2022-08-05T09:38:12.391Z,19.21
2022-08-05T09:41:21.010Z,20.34
2022-08-05T09:44:44.688Z,20.12
2022-08-05T09:47:55.827Z,19.73
2022-08-05T09:51:14.924Z,20.07
2022-08-05T09:54:32.683Z,20.53
2022-08-05T09:57:44.837Z,20.47
2022-08-05T10:01:14.833Z,20.45
2022-08-05T10:04:18.743Z,19.14
2022-08-05T10:08:35.030Z,18.73
2022-08-05T10:11:35.332Z,17.95
2022-08-05T10:14:38.026Z,17.10
2022-08-05T10:17:54.486Z,16.93
2022-08-05T10:21:06.110Z,18.85
2022-08-05T10:24:15.201Z,17.96
2022-08-05T10:27:18.563Z,18.60
2022-08-05T10:31:21.013Z,19.51
2022-08-05T10:33:54.463Z,19.77
2022-08-05T10:36:58.153Z,19.34
2022-08-05T10:40:17.786Z,19.16
2022-08-05T10:43:45.896Z,18.67
2022-08-05T10:46:56.544Z,18.98
2022-08-05T10:50:32.342Z,17.48
2022-08-05T10:53:45.116Z,19.22
2022-08-05T10:56:52.834Z,19.09
2022-08-05T11:00:18.241Z,17.52
2022-08-05T11:03:27.039Z,19.05
2022-08-05T11:06:31.333Z,17.80
2022-08-05T11:09:51.518Z,18.67
2022-08-05T11:13:07.538Z,17.29
2022-08-05T11:16:23.199Z,18.46
2022-08-05T11:20:16.927Z,16.83
2022-08-05T11:24:04.419Z,17.42
2022-08-05T11:27:50.925Z,17.36
2022-08-05T11:31:06.811Z,18.26
2022-08-05T11:34:14.721Z,18.33
2022-08-05T11:38:28.305Z,19.06
2022-08-05T11:41:35.021Z,17.45
2022-08-05T11:44:53.345Z,17.50
2022-08-05T11:47:58.806Z,18.67
2022-08-05T11:51:02.566Z,19.13
2022-08-05T11:54:06.788Z,19.47
2022-08-05T11:57:25.391Z,19.42
2022-08-05T12:00:30.583Z,18.32
2022-08-05T12:03:56.064Z,17.16
2022-08-05T12:07:02.124Z,19.81
2022-08-05T12:10:11.715Z,19.77
2022-08-05T12:13:47.642Z,18.90
2022-08-05T12:16:45.479Z,19.12
2022-08-05T12:20:17.035Z,19.88
2022-08-05T12:23:15.923Z,19.74
2022-08-05T12:26:18.477Z,20.79
2022-08-05T12:29:26.777Z,20.48
2022-08-05T12:32:32.286Z,21.67
2022-08-05T12:35:37.250Z,20.92
2022-08-05T12:38:43.150Z,21.51
2022-08-05T12:41:46.144Z,20.81
2022-08-05T12:44:50.550Z,20.99
2022-08-05T12:48:01.528Z,20.83
2022-08-05T12:52:11.235Z,21.23
2022-08-05T12:54:46.289Z,20.99
2022-08-05T12:58:49.788Z,20.99
2022-08-05T13:02:02.361Z,21.09
2022-08-05T13:04:52.547Z,21.38
2022-08-05T13:07:59.686Z,20.64
2022-08-05T13:11:04.337Z,19.94
2022-08-05T13:14:36.341Z,20.70
2022-08-05T13:17:41.311Z,20.86
2022-08-05T13:20:45.794Z,21.32
2022-08-05T13:23:50.652Z,21.16
2022-08-05T13:26:54.088Z,21.40
2022-08-05T13:30:32.526Z,21.00
2022-08-05T13:34:24.127Z,21.12
2022-08-05T13:36:43.883Z,21.20
2022-08-05T13:40:16.107Z,20.53
2022-08-05T13:43:13.847Z,20.06
2022-08-05T13:46:50.953Z,20.09
2022-08-05T13:49:49.140Z,20.70
2022-08-05T13:52:52.143Z,20.58
2022-08-05T13:55:57.642Z,20.85
2022-08-05T13:59:06.037Z,20.65
2022-08-05T14:02:26.554Z,20.48
2022-08-05T14:06:24.406Z,20.53
2022-08-05T14:08:52.276Z,20.47
2022-08-05T14:12:04.028Z,20.18
2022-08-05T14:16:04.794Z,20.51
2022-08-05T14:18:45.149Z,20.56
2022-08-05T14:22:10.278Z,20.74
2022-08-05T14:25:19.173Z,20.73
2022-08-05T14:28:26.917Z,20.36
2022-08-05T14:32:03.726Z,20.50
2022-08-05T14:34:53.967Z,20.71
2022-08-05T14:37:59.621Z,21.38
2022-08-05T14:41:07.495Z,21.45
2022-08-05T14:44:20.353Z,21.45
2022-08-05T14:48:05.767Z,20.93
2022-08-05T14:50:47.767Z,21.32
2022-08-05T14:54:26.903Z,21.41
2022-08-05T14:57:15.533Z,20.61
2022-08-05T15:00:21.457Z,20.36
2022-08-05T15:03:33.301Z,20.91
2022-08-05T15:06:37.035Z,20.30
2022-08-05T15:09:52.154Z,20.53
2022-08-05T15:13:03.677Z,20.47
2022-08-05T15:16:07.646Z,20.70
2022-08-05T15:19:23.931Z,20.60
2022-08-05T15:22:28.172Z,20.73
2022-08-05T15:25:41.192Z,20.34
2022-08-05T15:28:56.070Z,20.29
2022-08-05T15:32:02.309Z,20.91
2022-08-05T15:35:10.570Z,20.31
2022-08-05T15:38:35.374Z,20.78
2022-08-05T15:41:58.268Z,20.04
2022-08-05T15:45:02.042Z,20.89
2022-08-05T15:48:05.587Z,20.77
2022-08-05T15:51:09.527Z,20.91
2022-08-05T15:54:15.278Z,20.78
2022-08-05T15:57:19.765Z,20.74
2022-08-05T16:00:26.493Z,20.86
2022-08-05T16:03:50.291Z,20.73
2022-08-05T16:06:56.976Z,20.88
2022-08-05T16:10:01.655Z,20.81
2022-08-05T16:13:05.529Z,21.07
2022-08-05T16:16:10.786Z,21.51
2022-08-05T16:19:25.589Z,21.32
2022-08-05T16:22:38.357Z,21.02
2022-08-05T16:25:43.276Z,21.04
2022-08-05T16:28:49.577Z,21.10
2022-08-05T16:31:56.993Z,21.09
2022-08-05T16:35:00.591Z,21.37
2022-08-05T16:38:15.324Z,21.38
2022-08-05T16:42:15.214Z,21.36
2022-08-05T16:44:54.393Z,21.40
2022-08-05T16:48:03.026Z,21.60
2022-08-05T16:51:09.927Z,21.75
2022-08-05T16:54:17.163Z,21.80
2022-08-05T16:57:30.163Z,21.51
2022-08-05T17:00:49.632Z,21.73
2022-08-05T17:03:52.572Z,21.94
2022-08-05T17:07:00.884Z,22.08
2022-08-05T17:10:11.060Z,21.94
2022-08-05T17:13:16.807Z,21.78
2022-08-05T17:16:33.128Z,22.06
2022-08-05T17:19:36.859Z,22.43
2022-08-05T17:22:39.869Z,22.41
2022-08-05T17:25:45.820Z,22.62
2022-08-05T17:28:53.819Z,22.91
2022-08-05T17:31:58.985Z,22.96
2022-08-05T17:35:02.147Z,22.86
2022-08-05T17:38:13.414Z,23.20
2022-08-05T17:42:19.102Z,23.33
2022-08-05T17:44:50.458Z,22.98
2022-08-05T17:47:56.055Z,23.19
2022-08-05T17:50:59.912Z,23.62
2022-08-05T17:54:04.770Z,24.05
2022-08-05T17:57:11.904Z,23.80
2022-08-05T18:00:16.243Z,24.42
2022-08-05T18:03:56.296Z,24.47
2022-08-05T18:06:42.844Z,24.65
2022-08-05T18:10:00.313Z,25.08
2022-08-05T18:13:15.366Z,25.12
2022-08-05T18:16:22.201Z,25.03
2022-08-05T18:19:26.071Z,25.60
2022-08-05T18:22:36.275Z,25.52
2022-08-05T18:25:57.794Z,25.27
2022-08-05T18:29:02.850Z,25.65
2022-08-05T18:32:07.617Z,25.42
2022-08-05T18:35:17.032Z,25.52
2022-08-05T18:38:26.462Z,25.41
2022-08-05T18:41:55.680Z,25.93
2022-08-05T18:44:56.540Z,26.08
2022-08-05T18:47:59.557Z,26.44
2022-08-05T18:52:04.446Z,26.28
2022-08-05T18:54:48.717Z,26.19
2022-08-05T18:58:03.746Z,26.01
2022-08-05T19:01:06.871Z,26.38
2022-08-05T19:04:23.924Z,26.62
2022-08-05T19:07:29.694Z,26.59
2022-08-05T19:10:45.266Z,26.69
2022-08-05T19:14:00.999Z,26.45
2022-08-05T19:17:06.386Z,27.11
2022-08-05T19:20:15.083Z,27.78
2022-08-05T19:24:04.434Z,27.79
2022-08-05T19:26:54.070Z,28.27
2022-08-05T19:29:58.617Z,28.08
2022-08-05T19:33:01.632Z,30.79
2022-08-05T19:36:08.951Z,29.48
2022-08-05T19:39:12.205Z,30.32
2022-08-05T19:42:34.903Z,30.80
2022-08-05T19:45:40.347Z,30.45
2022-08-05T19:49:00.874Z,31.21
2022-08-05T19:52:30.222Z,31.66
2022-08-05T19:56:13.768Z,32.24
2022-08-05T19:58:54.514Z,32.22
2022-08-05T20:01:57.186Z,32.27
2022-08-05T20:05:01.088Z,32.16
2022-08-05T20:08:07.532Z,31.71
2022-08-05T20:11:12.165Z,32.12
2022-08-05T20:14:26.600Z,32.00
2022-08-05T20:17:32.449Z,32.60
2022-08-05T20:20:43.694Z,33.17
2022-08-05T20:23:51.221Z,33.54
2022-08-05T20:26:55.895Z,33.79
2022-08-05T20:30:00.167Z,33.88
2022-08-05T20:33:03.077Z,34.30
2022-08-05T20:36:06.345Z,33.85
2022-08-05T20:39:13.823Z,33.90
2022-08-05T20:42:21.742Z,33.99
2022-08-05T20:45:24.562Z,33.76
2022-08-05T20:48:51.296Z,34.10
2022-08-05T20:51:55.362Z,34.42
2022-08-05T20:55:54.821Z,34.71
2022-08-05T20:58:29.608Z,34.70
2022-08-05T21:01:37.583Z,34.79
2022-08-05T21:04:41.560Z,35.37
2022-08-05T21:07:51.927Z,35.20
2022-08-05T21:10:58.571Z,35.31
2022-08-05T21:14:01.755Z,34.98
2022-08-05T21:17:05.198Z,35.04
2022-08-05T21:20:10.483Z,35.34
2022-08-05T21:23:14.118Z,35.54
2022-08-05T21:26:17.068Z,35.95
2022-08-05T21:29:20.394Z,36.71
2022-08-05T21:32:29.285Z,35.79
2022-08-05T21:35:55.364Z,35.90
2022-08-05T21:38:55.634Z,36.09
2022-08-05T21:42:01.525Z,36.50
2022-08-05T21:45:06.291Z,36.18
2022-08-05T21:48:13.831Z,36.67
2022-08-05T21:52:15.445Z,39.67
2022-08-05T21:54:41.472Z,37.15
2022-08-05T21:57:44.612Z,36.89
2022-08-05T22:00:51.496Z,38.12
2022-08-05T22:03:54.796Z,38.08
2022-08-05T22:06:58.719Z,38.22
2022-08-05T22:10:01.917Z,37.90
2022-08-05T22:13:09.259Z,39.48
2022-08-05T22:16:41.657Z,40.02
2022-08-05T22:19:57.141Z,43.60
2022-08-05T22:24:01.969Z,41.57
2022-08-05T22:27:10.964Z,42.15
2022-08-05T22:30:19.441Z,43.19
2022-08-05T22:33:55.506Z,44.73
2022-08-05T22:36:48.190Z,41.63
2022-08-05T22:39:51.421Z,45.85
2022-08-05T22:42:58.513Z,44.29
2022-08-05T22:46:05.830Z,45.74
2022-08-05T22:50:17.673Z,46.76
2022-08-05T22:52:36.029Z,46.77
2022-08-05T22:55:57.267Z,46.82
2022-08-05T22:59:04.109Z,40.86
2022-08-05T23:02:28.867Z,43.17
2022-08-05T23:05:36.157Z,42.61
2022-08-05T23:08:39.331Z,45.23
2022-08-05T23:11:46.549Z,44.83
2022-08-05T23:14:52.305Z,44.58
2022-08-05T23:18:00.997Z,44.92
2022-08-05T23:21:05.783Z,45.40
2022-08-05T23:24:12.844Z,45.89
2022-08-05T23:27:16.666Z,45.82
2022-08-05T23:30:27.135Z,46.66
2022-08-05T23:34:05.471Z,46.50
2022-08-05T23:36:57.270Z,45.74
2022-08-05T23:40:02.285Z,46.04
2022-08-05T23:43:24.410Z,45.04
2022-08-05T23:46:28.897Z,45.44
2022-08-05T23:49:35.936Z,44.68
2022-08-05T23:52:49.486Z,41.81
2022-08-05T23:55:53.006Z,41.49
2022-08-05T23:58:58.721Z,41.99
